Time;durP1;ratioP1;P1;durP2;ratioP2;P2;SDS_P1;SDS_P2;PMS_P1;PMS_P2;Temp;Humidity;BMP_temperature;BMP_pressure;BME280_temperature;BME280_humidity;BME280_pressure;Samples;Min_cycle;Max_cycle;Signal;HPM_P1;HPM_P2
2023/06/24 00:02:09;;;;;;;12.73;9.65;;;16.60;99.90;;;;;;5071505;28;20048;-65
2023/06/24 00:04:35;;;;;;;12.43;9.80;;;16.60;99.90;;;;;;5053752;28;20041;-65
2023/06/24 00:07:02;;;;;;;15.82;10.75;;;16.50;99.90;;;;;;5053575;28;20055;-65
2023/06/24 00:09:28;;;;;;;15.27;9.40;;;16.50;99.90;;;;;;5052568;28;20083;-65
2023/06/24 00:11:55;;;;;;;13.43;9.32;;;16.50;99.90;;;;;;5075181;28;20068;-65
2023/06/24 00:14:23;;;;;;;17.17;11.18;;;16.40;99.90;;;;;;5036857;28;20056;-65
2023/06/24 00:16:51;;;;;;;13.52;9.95;;;16.40;99.90;;;;;;5072348;28;20036;-64
2023/06/24 00:19:23;;;;;;;11.25;8.57;;;16.40;99.90;;;;;;5057467;28;20041;-65
2023/06/24 00:21:52;;;;;;;10.63;8.95;;;16.30;99.90;;;;;;5056608;28;20040;-64
2023/06/24 00:24:25;;;;;;;11.63;9.32;;;16.30;99.90;;;;;;5057136;28;20032;-65
2023/06/24 00:26:54;;;;;;;11.70;9.15;;;16.30;99.90;;;;;;5075126;28;20047;-64
2023/06/24 00:29:20;;;;;;;11.65;8.20;;;16.30;99.90;;;;;;5074136;28;20127;-64
2023/06/24 00:31:46;;;;;;;12.07;9.32;;;16.30;99.90;;;;;;5057063;28;20131;-64
2023/06/24 00:34:11;;;;;;;12.93;9.80;;;16.30;99.90;;;;;;5057848;28;20119;-65
2023/06/24 00:36:38;;;;;;;13.05;8.98;;;16.30;99.90;;;;;;5074265;28;20497;-64
2023/06/24 00:39:05;;;;;;;13.32;9.68;;;16.20;99.90;;;;;;5056778;28;20135;-65
2023/06/24 00:41:31;;;;;;;12.65;9.43;;;16.20;99.90;;;;;;5061320;28;20052;-64
2023/06/24 00:43:58;;;;;;;11.15;8.88;;;16.20;99.90;;;;;;5070764;28;20078;-64
2023/06/24 00:46:27;;;;;;;17.55;11.55;;;16.20;99.90;;;;;;5074650;28;20036;-64
2023/06/24 00:48:55;;;;;;;13.35;10.70;;;16.20;99.90;;;;;;5034611;28;20103;-64
2023/06/24 00:51:26;;;;;;;13.50;11.07;;;16.10;99.90;;;;;;5036063;28;20036;-64
2023/06/24 00:53:55;;;;;;;15.70;11.00;;;16.10;99.90;;;;;;5054614;28;20052;-64
2023/06/24 00:56:33;;;;;;;14.23;10.93;;;16.20;99.90;;;;;;5054076;28;20047;-64
2023/06/24 00:59:02;;;;;;;11.25;8.35;;;16.10;99.90;;;;;;5036689;28;20049;-65
2023/06/24 01:01:33;;;;;;;15.00;9.27;;;16.10;99.90;;;;;;5054611;28;20048;-65
2023/06/24 01:04:00;;;;;;;13.55;10.13;;;16.10;99.90;;;;;;5053765;28;20037;-65
2023/06/24 01:06:29;;;;;;;14.00;10.20;;;16.00;99.90;;;;;;5054376;28;20040;-65
2023/06/24 01:08:59;;;;;;;12.68;9.52;;;16.00;99.90;;;;;;5054185;28;20058;-65
2023/06/24 01:11:26;;;;;;;11.85;9.32;;;16.00;99.90;;;;;;5054571;28;20541;-64
2023/06/24 01:13:52;;;;;;;13.65;9.40;;;16.00;99.90;;;;;;5036622;28;20045;-65
2023/06/24 01:16:41;;;;;;;12.52;9.50;;;15.90;99.90;;;;;;5037792;28;20600;-65
2023/06/24 01:19:38;;;;;;;11.77;9.52;;;15.90;99.90;;;;;;5043319;28;20056;-64
2023/06/24 01:22:41;;;;;;;12.48;9.50;;;15.80;99.90;;;;;;5055533;28;20048;-64
2023/06/24 01:25:31;;;;;;;11.18;8.77;;;15.80;99.90;;;;;;5073618;28;20043;-65
2023/06/24 01:28:09;;;;;;;14.45;11.27;;;15.80;99.90;;;;;;5055909;28;20044;-65
2023/06/24 01:30:34;;;;;;;14.55;11.18;;;15.80;99.90;;;;;;5055843;28;20058;-65
2023/06/24 01:33:08;;;;;;;12.77;10.75;;;15.80;99.90;;;;;;5055337;28;20135;-64
2023/06/24 01:35:36;;;;;;;14.75;11.57;;;15.80;99.90;;;;;;5056154;28;20041;-64
2023/06/24 01:38:10;;;;;;;13.30;10.95;;;15.80;99.90;;;;;;5071888;28;20032;-64
2023/06/24 01:40:44;;;;;;;15.05;12.25;;;15.80;99.90;;;;;;5052871;28;20410;-64
2023/06/24 01:43:11;;;;;;;14.27;10.75;;;15.80;99.90;;;;;;5054080;28;20458;-65
2023/06/24 01:45:41;;;;;;;17.58;11.20;;;15.80;99.90;;;;;;5052983;28;20040;-64
2023/06/24 01:48:13;;;;;;;14.02;10.48;;;15.80;99.90;;;;;;5036301;28;20095;-64
2023/06/24 01:50:42;;;;;;;14.57;10.45;;;15.70;99.90;;;;;;5069852;28;20045;-65
2023/06/24 01:53:08;;;;;;;17.08;11.50;;;15.80;99.90;;;;;;5053024;28;20044;-65
2023/06/24 01:55:37;;;;;;;14.35;10.88;;;15.80;99.90;;;;;;5068911;28;20049;-65
2023/06/24 01:58:05;;;;;;;16.13;10.18;;;15.80;99.90;;;;;;5038095;28;20041;-65
2023/06/24 02:00:33;;;;;;;12.93;9.25;;;15.70;99.90;;;;;;5036033;28;20049;-65
2023/06/24 02:03:00;;;;;;;12.85;9.70;;;15.80;99.90;;;;;;5053500;28;20055;-65
2023/06/24 02:05:28;;;;;;;12.65;9.32;;;15.70;99.90;;;;;;5035298;28;20456;-65
2023/06/24 02:07:56;;;;;;;13.48;9.80;;;15.70;99.90;;;;;;5034699;28;20477;-65
2023/06/24 02:10:23;;;;;;;12.70;9.65;;;15.70;99.90;;;;;;5035738;28;20049;-65
2023/06/24 02:12:52;;;;;;;13.38;9.88;;;15.60;99.90;;;;;;5035358;28;20493;-65
2023/06/24 02:15:19;;;;;;;14.90;10.90;;;15.60;99.90;;;;;;5052417;28;20490;-65
2023/06/24 02:17:48;;;;;;;14.07;11.00;;;15.70;99.90;;;;;;5052824;28;20044;-64
2023/06/24 02:20:16;;;;;;;12.63;10.48;;;15.60;99.90;;;;;;5052816;28;20044;-65
2023/06/24 02:22:44;;;;;;;15.52;10.32;;;15.60;99.90;;;;;;5034310;28;20041;-64
2023/06/24 02:25:10;;;;;;;15.57;11.30;;;15.70;99.90;;;;;;5035764;28;20048;-65
2023/06/24 02:27:37;;;;;;;13.50;10.32;;;15.60;99.90;;;;;;5053126;28;20087;-65
2023/06/24 02:30:07;;;;;;;18.02;11.70;;;15.60;99.90;;;;;;5034414;28;20550;-64
2023/06/24 02:32:35;;;;;;;12.15;9.88;;;15.60;99.90;;;;;;5052577;28;20132;-65
2023/06/24 02:35:01;;;;;;;16.70;11.00;;;15.60;99.90;;;;;;5052456;28;20045;-64
2023/06/24 02:37:27;;;;;;;15.13;10.45;;;15.60;99.90;;;;;;5018144;28;20139;-65
2023/06/24 02:39:52;;;;;;;14.70;10.02;;;15.60;99.90;;;;;;5035090;28;20052;-65
2023/06/24 02:42:18;;;;;;;13.98;11.57;;;15.60;99.90;;;;;;5051974;28;20159;-64
2023/06/24 02:44:44;;;;;;;14.95;10.85;;;15.50;99.90;;;;;;5052574;28;20033;-65
2023/06/24 02:47:12;;;;;;;15.02;10.82;;;15.60;99.90;;;;;;5034749;28;20051;-64
2023/06/24 02:49:39;;;;;;;13.68;11.13;;;15.50;99.90;;;;;;5034256;28;20490;-65
2023/06/24 02:52:05;;;;;;;14.70;9.75;;;15.50;99.90;;;;;;5034841;28;20045;-65
2023/06/24 02:54:32;;;;;;;16.38;10.82;;;15.50;99.90;;;;;;5034964;28;20504;-64
2023/06/24 02:56:59;;;;;;;15.07;10.20;;;15.60;99.90;;;;;;5033901;28;20374;-65
2023/06/24 02:59:25;;;;;;;13.18;9.70;;;15.60;99.90;;;;;;5034490;28;20041;-65
2023/06/24 03:01:51;;;;;;;14.30;10.75;;;15.60;99.90;;;;;;5051636;28;20041;-65
2023/06/24 03:04:19;;;;;;;14.07;11.60;;;15.60;99.90;;;;;;5051751;28;20120;-65
2023/06/24 03:06:46;;;;;;;14.88;11.55;;;15.60;99.90;;;;;;5017879;28;20119;-65
2023/06/24 03:09:12;;;;;;;15.07;11.35;;;15.60;99.90;;;;;;5034672;28;20121;-65
2023/06/24 03:11:42;;;;;;;16.90;12.02;;;15.60;99.90;;;;;;5051491;28;20112;-65
2023/06/24 03:14:08;;;;;;;19.42;12.45;;;15.60;99.90;;;;;;5052364;28;20037;-65
2023/06/24 03:16:34;;;;;;;15.73;11.07;;;15.60;99.90;;;;;;5034211;28;20072;-65
2023/06/24 03:19:00;;;;;;;15.07;10.40;;;15.60;99.90;;;;;;5016864;28;20051;-65
2023/06/24 03:21:28;;;;;;;13.05;10.27;;;15.60;99.90;;;;;;5052094;28;20389;-64
2023/06/24 03:23:54;;;;;;;14.02;10.90;;;15.60;99.90;;;;;;5034245;28;20040;-65
2023/06/24 03:26:20;;;;;;;13.98;10.98;;;15.50;99.90;;;;;;5033639;28;20049;-65
2023/06/24 03:28:46;;;;;;;16.02;11.50;;;15.60;99.90;;;;;;5040200;28;20101;-65
2023/06/24 03:31:11;;;;;;;16.25;11.35;;;15.60;99.90;;;;;;5071587;28;20405;-65
2023/06/24 03:33:37;;;;;;;16.27;11.27;;;15.50;99.90;;;;;;5054387;28;20032;-65
2023/06/24 03:36:08;;;;;;;13.10;9.80;;;15.60;99.90;;;;;;5053914;28;20492;-65
2023/06/24 03:38:34;;;;;;;14.25;10.50;;;15.50;99.90;;;;;;5053587;28;20045;-65
2023/06/24 03:40:59;;;;;;;16.38;11.85;;;15.50;99.90;;;;;;5054304;28;20047;-65
2023/06/24 03:43:25;;;;;;;14.25;10.82;;;15.50;99.90;;;;;;5054196;28;20078;-65
2023/06/24 03:45:51;;;;;;;13.63;10.07;;;15.50;99.90;;;;;;5073537;28;20045;-65
2023/06/24 03:48:16;;;;;;;16.85;12.55;;;15.50;99.90;;;;;;5058067;28;20047;-65
2023/06/24 03:50:42;;;;;;;12.52;10.07;;;15.50;99.90;;;;;;5058248;28;20044;-65
2023/06/24 03:53:08;;;;;;;13.98;10.82;;;15.60;99.90;;;;;;5075365;28;20051;-65
2023/06/24 03:55:33;;;;;;;14.48;10.80;;;15.60;99.90;;;;;;5057497;28;20068;-65
2023/06/24 03:57:59;;;;;;;13.70;9.70;;;15.60;99.90;;;;;;5074595;28;20044;-65
2023/06/24 04:00:25;;;;;;;15.35;11.13;;;15.60;99.90;;;;;;5075035;28;20123;-65
2023/06/24 04:02:53;;;;;;;15.30;10.90;;;15.60;99.90;;;;;;5057373;28;20072;-65
2023/06/24 04:05:19;;;;;;;14.80;10.05;;;15.60;99.90;;;;;;5048893;28;20086;-65
2023/06/24 04:07:50;;;;;;;14.23;11.02;;;15.60;99.90;;;;;;5054384;28;20098;-65
2023/06/24 04:10:17;;;;;;;13.88;10.60;;;15.70;99.90;;;;;;5055503;28;20115;-65
2023/06/24 04:12:42;;;;;;;14.95;10.48;;;15.70;99.90;;;;;;5054006;28;20083;-65
2023/06/24 04:15:08;;;;;;;16.50;10.82;;;15.80;99.90;;;;;;5037233;28;20072;-65
2023/06/24 04:17:34;;;;;;;13.45;10.50;;;15.80;99.90;;;;;;5037312;28;20059;-65
2023/06/24 04:20:00;;;;;;;14.73;10.90;;;15.90;99.90;;;;;;5055274;28;20049;-65
2023/06/24 04:22:26;;;;;;;20.30;11.48;;;15.90;99.90;;;;;;5036580;28;20086;-65
2023/06/24 04:24:51;;;;;;;13.38;9.63;;;16.00;99.90;;;;;;5021072;28;20052;-65
2023/06/24 04:27:17;;;;;;;12.75;9.60;;;16.00;99.90;;;;;;5037210;28;20574;-65
2023/06/24 04:29:43;;;;;;;12.30;9.82;;;16.00;99.90;;;;;;5036478;28;20188;-64
2023/06/24 04:32:08;;;;;;;12.10;9.32;;;16.10;99.90;;;;;;5057653;28;20071;-65
2023/06/24 04:34:34;;;;;;;14.95;10.82;;;16.20;99.90;;;;;;5056161;28;20527;-65
2023/06/24 04:37:00;;;;;;;14.25;11.20;;;16.20;99.90;;;;;;5057374;28;20045;-65
2023/06/24 04:39:25;;;;;;;11.95;9.82;;;16.20;99.90;;;;;;5056890;28;20123;-65
2023/06/24 04:41:51;;;;;;;13.57;9.07;;;16.30;99.90;;;;;;5056087;28;20036;-65
2023/06/24 04:44:17;;;;;;;12.30;8.90;;;16.30;99.90;;;;;;5057025;28;20067;-65
2023/06/24 04:46:45;;;;;;;19.70;11.13;;;16.40;99.90;;;;;;5074777;28;20036;-65
2023/06/24 04:49:11;;;;;;;13.10;9.77;;;16.40;99.90;;;;;;5074384;28;20032;-65
2023/06/24 04:51:37;;;;;;;14.48;10.57;;;16.50;99.90;;;;;;5074727;28;20039;-65
2023/06/24 04:54:03;;;;;;;14.60;10.95;;;16.60;99.90;;;;;;5055600;28;20068;-65
2023/06/24 04:56:29;;;;;;;13.90;9.57;;;16.70;99.90;;;;;;5055626;28;20041;-65
2023/06/24 04:58:55;;;;;;;14.10;10.35;;;16.80;99.90;;;;;;5074683;28;20036;-65
2023/06/24 05:01:22;;;;;;;15.40;10.55;;;16.80;99.90;;;;;;5045028;28;20067;-65
2023/06/24 05:03:48;;;;;;;13.43;10.38;;;17.00;99.90;;;;;;5053694;28;20394;-65
2023/06/24 05:06:13;;;;;;;12.75;9.85;;;17.10;99.90;;;;;;5036574;28;20052;-65
2023/06/24 05:08:39;;;;;;;13.85;10.13;;;17.20;99.90;;;;;;5037525;28;20033;-65
2023/06/24 05:11:05;;;;;;;13.38;9.55;;;17.40;99.90;;;;;;5036222;28;20111;-65
2023/06/24 05:13:31;;;;;;;14.68;10.45;;;17.50;99.90;;;;;;5068207;28;20044;-65
2023/06/24 05:15:56;;;;;;;13.65;9.45;;;17.60;99.90;;;;;;5036338;28;20472;-65
2023/06/24 05:18:22;;;;;;;12.95;10.00;;;17.80;99.90;;;;;;5035853;28;20041;-65
2023/06/24 05:20:48;;;;;;;14.80;10.90;;;17.90;99.90;;;;;;5039987;28;20067;-65
2023/06/24 05:23:13;;;;;;;13.90;9.38;;;18.00;99.90;;;;;;5036655;28;20068;-65
2023/06/24 05:25:39;;;;;;;12.00;9.18;;;18.10;99.90;;;;;;5036002;28;20374;-65
2023/06/24 05:28:05;;;;;;;15.35;9.95;;;18.30;99.90;;;;;;5036007;28;20045;-65
2023/06/24 05:30:30;;;;;;;12.45;10.20;;;18.40;99.90;;;;;;5051880;28;20135;-65
2023/06/24 05:32:56;;;;;;;13.75;9.80;;;18.50;99.90;;;;;;5016507;28;20138;-65
2023/06/24 05:35:22;;;;;;;12.48;9.32;;;18.60;99.90;;;;;;5033764;28;20131;-65
2023/06/24 05:37:47;;;;;;;13.45;9.80;;;18.70;99.90;;;;;;5032926;28;20045;-66
2023/06/24 05:40:13;;;;;;;11.98;9.63;;;18.80;99.90;;;;;;5035631;28;20072;-65
2023/06/24 05:42:39;;;;;;;14.52;10.38;;;19.00;99.90;;;;;;5053590;28;20041;-65
2023/06/24 05:45:06;;;;;;;12.10;8.93;;;19.20;99.90;;;;;;5071071;28;20489;-66
2023/06/24 05:47:32;;;;;;;14.02;9.38;;;19.30;99.90;;;;;;5071391;28;20048;-65
2023/06/24 05:49:58;;;;;;;14.77;10.05;;;19.50;99.90;;;;;;5071537;28;20205;-66
2023/06/24 05:52:24;;;;;;;15.60;9.90;;;19.60;99.90;;;;;;5052928;28;20818;-66
2023/06/24 05:54:50;;;;;;;12.40;10.07;;;19.60;99.90;;;;;;5070992;28;20048;-65
2023/06/24 05:57:16;;;;;;;12.75;9.70;;;19.60;99.90;;;;;;5045338;28;20033;-65
2023/06/24 05:59:41;;;;;;;12.35;8.80;;;19.50;99.90;;;;;;5032966;28;20377;-66
2023/06/24 06:02:07;;;;;;;13.88;9.77;;;19.50;99.90;;;;;;5071412;28;20442;-66
2023/06/24 06:04:33;;;;;;;11.38;8.65;;;19.50;99.90;;;;;;5067535;28;20040;-66
2023/06/24 06:06:59;;;;;;;13.15;10.27;;;19.50;99.90;;;;;;5055140;28;20052;-66
2023/06/24 06:09:24;;;;;;;13.45;9.32;;;19.50;99.90;;;;;;5061319;28;20040;-66
2023/06/24 06:11:50;;;;;;;13.75;9.43;;;19.50;99.90;;;;;;5053305;28;20044;-65
2023/06/24 06:14:16;;;;;;;14.35;10.45;;;19.60;99.90;;;;;;5024318;28;20578;-67
2023/06/24 06:16:41;;;;;;;13.65;9.85;;;19.60;99.90;;;;;;5050801;28;20037;-66
2023/06/24 06:19:07;;;;;;;13.38;10.05;;;19.60;99.90;;;;;;5033890;28;20076;-66
2023/06/24 06:21:33;;;;;;;12.88;9.70;;;19.60;99.90;;;;;;5041208;28;20048;-66
2023/06/24 06:23:58;;;;;;;13.73;9.80;;;19.60;99.90;;;;;;5070009;28;20068;-66
2023/06/24 06:26:25;;;;;;;13.10;8.88;;;19.60;99.90;;;;;;5071061;28;20412;-66
2023/06/24 06:28:51;;;;;;;15.15;10.63;;;19.70;99.90;;;;;;5066312;28;20544;-66
2023/06/24 06:31:16;;;;;;;12.55;9.75;;;19.70;99.90;;;;;;5036377;28;20072;-64
2023/06/24 06:33:43;;;;;;;14.02;9.73;;;19.80;99.90;;;;;;5034847;28;20045;-66
2023/06/24 06:36:09;;;;;;;14.23;9.73;;;19.90;99.90;;;;;;5034169;28;20036;-66
2023/06/24 06:38:35;;;;;;;13.18;10.32;;;19.90;99.90;;;;;;5052406;28;20493;-65
2023/06/24 06:41:00;;;;;;;13.52;9.88;;;20.10;99.90;;;;;;5051789;28;20041;-66
2023/06/24 06:43:26;;;;;;;13.80;10.20;;;20.20;99.90;;;;;;5052776;28;20040;-65
2023/06/24 06:45:52;;;;;;;13.57;10.60;;;20.30;99.90;;;;;;5034686;28;20044;-66
2023/06/24 06:48:18;;;;;;;14.15;10.35;;;20.40;99.90;;;;;;5052130;28;20041;-65
2023/06/24 06:50:45;;;;;;;13.68;10.63;;;20.60;99.90;;;;;;5052709;28;20043;-66
2023/06/24 06:53:11;;;;;;;15.45;9.63;;;20.70;99.90;;;;;;5052795;28;20047;-66
2023/06/24 06:55:39;;;;;;;14.90;10.63;;;20.80;99.90;;;;;;5034514;28;20433;-65
2023/06/24 06:58:05;;;;;;;14.77;10.65;;;20.90;99.90;;;;;;5054694;28;20052;-65
2023/06/24 07:00:31;;;;;;;13.43;9.90;;;21.00;99.90;;;;;;5072230;28;20036;-66
2023/06/24 07:02:57;;;;;;;14.23;9.57;;;21.20;99.90;;;;;;5071668;28;20082;-65
2023/06/24 07:05:22;;;;;;;14.77;9.85;;;21.20;99.90;;;;;;5054347;28;20538;-66
2023/06/24 07:07:49;;;;;;;18.70;10.80;;;21.30;99.90;;;;;;5054124;28;20044;-65
2023/06/24 07:10:17;;;;;;;17.60;11.65;;;21.30;99.90;;;;;;5053346;28;20481;-65
2023/06/24 07:12:42;;;;;;;13.18;10.10;;;21.40;99.90;;;;;;5072151;28;20043;-65
2023/06/24 07:15:09;;;;;;;13.70;8.75;;;21.40;99.90;;;;;;5036019;28;20036;-65
2023/06/24 07:17:34;;;;;;;17.00;15.10;;;21.40;99.90;;;;;;5053252;28;20357;-65
2023/06/24 07:20:00;;;;;;;17.40;10.77;;;21.40;99.90;;;;;;5037619;28;20119;-65
2023/06/24 07:22:26;;;;;;;14.50;10.23;;;21.40;99.90;;;;;;5071825;28;20066;-65
2023/06/24 07:24:51;;;;;;;12.98;9.75;;;21.40;99.90;;;;;;5055348;28;20064;-65
2023/06/24 07:27:17;;;;;;;13.20;9.90;;;21.40;99.90;;;;;;5054063;28;20504;-66
2023/06/24 07:29:43;;;;;;;14.07;10.70;;;21.40;99.90;;;;;;5064793;28;20048;-66
2023/06/24 07:32:09;;;;;;;14.45;9.40;;;21.40;99.90;;;;;;5051654;28;20037;-66
2023/06/24 07:34:36;;;;;;;12.40;9.55;;;21.40;99.90;;;;;;5017700;28;20490;-66
2023/06/24 07:37:02;;;;;;;14.18;10.13;;;21.40;99.90;;;;;;5017255;28;20879;-66
2023/06/24 07:39:28;;;;;;;13.50;10.40;;;21.40;99.90;;;;;;5016430;28;20078;-66
2023/06/24 07:41:54;;;;;;;14.02;10.45;;;21.50;99.90;;;;;;5024315;28;20040;-65
2023/06/24 07:44:20;;;;;;;14.82;11.18;;;21.50;99.90;;;;;;5036367;28;20040;-66
2023/06/24 07:46:46;;;;;;;16.88;12.05;;;21.50;99.90;;;;;;5054109;28;20036;-66
2023/06/24 07:49:11;;;;;;;12.88;9.43;;;21.60;99.90;;;;;;5041987;28;20044;-66
2023/06/24 07:51:37;;;;;;;13.27;10.18;;;21.70;99.90;;;;;;5033047;28;20033;-66
2023/06/24 07:54:03;;;;;;;13.65;10.38;;;21.70;99.90;;;;;;5034285;28;20045;-66
2023/06/24 07:56:28;;;;;;;14.27;9.73;;;21.80;99.90;;;;;;5051688;28;20044;-66
2023/06/24 07:58:55;;;;;;;13.35;9.88;;;21.90;99.90;;;;;;5051110;28;20033;-66
2023/06/24 08:01:21;;;;;;;13.48;10.73;;;22.00;99.90;;;;;;5017417;28;20070;-66
2023/06/24 08:03:46;;;;;;;12.98;9.55;;;22.10;99.90;;;;;;5034137;28;20037;-66
2023/06/24 08:06:12;;;;;;;16.30;10.32;;;22.20;99.90;;;;;;5033414;28;20051;-65
2023/06/24 08:08:38;;;;;;;14.50;10.95;;;22.20;99.90;;;;;;5051823;28;20041;-64
2023/06/24 08:11:03;;;;;;;14.75;10.48;;;22.30;99.90;;;;;;5033653;28;20048;-65
2023/06/24 08:13:29;;;;;;;16.50;11.23;;;22.30;99.90;;;;;;5016476;28;20041;-65
2023/06/24 08:15:55;;;;;;;17.02;11.13;;;22.50;99.90;;;;;;5051590;28;20043;-65
2023/06/24 08:18:20;;;;;;;14.27;10.75;;;22.50;99.90;;;;;;5016959;28;20481;-65
2023/06/24 08:20:46;;;;;;;16.00;11.27;;;22.70;99.90;;;;;;5033221;28;20056;-65
2023/06/24 08:23:12;;;;;;;14.77;10.43;;;22.80;99.90;;;;;;5033835;28;20486;-65
2023/06/24 08:25:38;;;;;;;14.30;10.38;;;22.90;99.90;;;;;;5051703;28;20094;-65
2023/06/24 08:28:03;;;;;;;13.77;10.65;;;22.90;99.90;;;;;;5050830;28;20048;-65
2023/06/24 08:30:29;;;;;;;14.95;10.43;;;23.00;99.90;;;;;;5049372;28;20084;-65
2023/06/24 08:32:55;;;;;;;13.88;10.52;;;23.10;99.90;;;;;;5054519;28;20528;-65
2023/06/24 08:35:21;;;;;;;13.90;9.75;;;23.10;99.90;;;;;;5053823;28;20095;-65
2023/06/24 08:37:47;;;;;;;14.25;9.68;;;23.10;99.90;;;;;;5036932;28;20441;-65
2023/06/24 08:40:13;;;;;;;10.90;8.40;;;23.20;99.90;;;;;;5036957;28;20045;-65
2023/06/24 08:42:38;;;;;;;13.32;9.07;;;23.30;99.90;;;;;;5036515;28;20045;-65
2023/06/24 08:45:04;;;;;;;40.00;25.88;;;23.40;99.90;;;;;;5054804;28;20037;-64
2023/06/24 08:47:30;;;;;;;13.52;9.75;;;23.50;99.90;;;;;;5036793;28;20049;-65
2023/06/24 08:50:04;;;;;;;12.68;9.15;;;23.60;99.90;;;;;;5053759;28;20455;-65
2023/06/24 08:52:33;;;;;;;13.67;9.83;;;23.70;99.90;;;;;;5036772;28;20504;-65
2023/06/24 08:55:00;;;;;;;15.02;13.07;;;23.80;99.90;;;;;;5035895;28;20052;-65
2023/06/24 08:57:26;;;;;;;15.38;11.98;;;24.00;99.90;;;;;;5054524;28;20410;-65
2023/06/24 08:59:53;;;;;;;14.68;8.43;;;24.20;99.90;;;;;;5054623;28;20041;-65
2023/06/24 09:02:19;;;;;;;26.08;18.38;;;24.30;99.90;;;;;;5035722;28;20040;-65
2023/06/24 09:04:44;;;;;;;12.77;10.38;;;24.20;99.90;;;;;;5036492;28;20044;-65
2023/06/24 09:07:11;;;;;;;12.90;8.15;;;24.20;99.90;;;;;;5036827;28;20414;-65
2023/06/24 09:09:44;;;;;;;13.63;9.05;;;24.30;99.90;;;;;;5053413;28;20044;-65
2023/06/24 09:12:14;;;;;;;15.32;9.60;;;24.40;99.90;;;;;;5036736;28;20508;-65
2023/06/24 09:14:40;;;;;;;12.80;7.43;;;24.40;99.90;;;;;;5036754;28;20099;-65
2023/06/24 09:17:09;;;;;;;11.40;8.85;;;24.40;99.90;;;;;;5053609;28;20470;-65
2023/06/24 09:19:39;;;;;;;13.82;8.57;;;24.50;99.90;;;;;;5036235;28;20048;-66
2023/06/24 09:22:06;;;;;;;11.23;8.40;;;24.60;99.90;;;;;;5036256;28;20387;-68
2023/06/24 09:24:33;;;;;;;11.95;7.05;;;24.70;99.90;;;;;;5036320;28;20037;-66
2023/06/24 09:27:00;;;;;;;13.25;8.00;;;24.80;99.90;;;;;;5050172;28;20044;-65
2023/06/24 09:29:27;;;;;;;11.60;8.70;;;24.80;99.90;;;;;;5019591;28;20060;-65
2023/06/24 09:31:55;;;;;;;11.88;8.25;;;24.90;99.90;;;;;;5048437;28;20482;-66
2023/06/24 09:34:21;;;;;;;10.82;7.35;;;24.90;99.90;;;;;;5056460;28;20125;-66
2023/06/24 09:36:53;;;;;;;11.90;8.23;;;24.90;99.90;;;;;;5073479;28;20118;-66
2023/06/24 09:39:28;;;;;;;10.95;6.70;;;25.00;99.90;;;;;;5056184;28;20087;-66
2023/06/24 09:41:58;;;;;;;11.55;7.82;;;25.10;99.90;;;;;;5056082;28;20032;-68
2023/06/24 09:44:24;;;;;;;11.30;7.35;;;25.30;99.90;;;;;;5072273;28;20097;-68
2023/06/24 09:46:51;;;;;;;14.63;7.30;;;25.40;99.90;;;;;;5055962;28;20131;-68
2023/06/24 09:49:16;;;;;;;10.57;6.82;;;25.60;99.90;;;;;;5067940;28;20374;-68
2023/06/24 09:51:47;;;;;;;9.70;6.75;;;25.70;99.90;;;;;;5051491;28;20048;-68
2023/06/24 09:54:15;;;;;;;11.30;6.95;;;25.90;99.90;;;;;;5053607;28;20064;-68
2023/06/24 09:56:53;;;;;;;9.32;6.57;;;25.80;99.90;;;;;;5035747;28;20536;-69
2023/06/24 09:59:21;;;;;;;11.23;6.55;;;25.90;99.90;;;;;;5052570;28;20045;-68
2023/06/24 10:01:47;;;;;;;8.63;6.60;;;25.90;99.90;;;;;;5053415;28;20043;-68
2023/06/24 10:04:17;;;;;;;9.80;5.72;;;25.80;99.90;;;;;;5035393;28;20497;-68
2023/06/24 10:06:43;;;;;;;8.95;6.05;;;25.70;99.90;;;;;;5034577;28;20045;-67
2023/06/24 10:09:09;;;;;;;8.40;5.88;;;25.70;99.90;;;;;;5035687;28;20041;-67
2023/06/24 10:11:36;;;;;;;9.85;6.50;;;25.70;99.00;;;;;;5035841;28;20029;-67
2023/06/24 10:14:02;;;;;;;12.38;5.75;;;25.80;98.00;;;;;;5052532;28;20079;-68
2023/06/24 10:16:28;;;;;;;11.10;6.47;;;25.90;97.80;;;;;;5051729;28;20528;-67
2023/06/24 10:19:03;;;;;;;16.05;8.00;;;26.10;97.60;;;;;;5035152;28;20097;-68
2023/06/24 10:21:48;;;;;;;9.70;6.50;;;26.30;96.70;;;;;;5035519;28;20170;-68
2023/06/24 10:24:31;;;;;;;8.38;5.20;;;26.40;96.50;;;;;;5051878;28;20037;-68
2023/06/24 10:27:02;;;;;;;9.93;5.78;;;26.40;94.90;;;;;;5051045;28;20054;-68
2023/06/24 10:29:35;;;;;;;8.70;5.20;;;26.40;94.60;;;;;;5051736;28;20045;-67
2023/06/24 10:32:06;;;;;;;8.05;4.95;;;26.50;94.50;;;;;;5052876;28;20045;-67
2023/06/24 10:34:33;;;;;;;10.07;5.97;;;26.60;94.20;;;;;;5055806;28;20131;-68
2023/06/24 10:37:04;;;;;;;8.65;5.72;;;26.60;94.20;;;;;;5037986;28;20105;-67
2023/06/24 10:39:48;;;;;;;8.43;5.82;;;26.80;94.40;;;;;;5071517;28;20401;-65
2023/06/24 10:42:24;;;;;;;8.27;5.70;;;26.80;94.10;;;;;;5037420;28;20048;-65
2023/06/24 10:44:51;;;;;;;11.38;6.22;;;26.50;94.40;;;;;;5067715;28;20045;-64
2023/06/24 10:47:18;;;;;;;10.10;5.93;;;26.40;95.50;;;;;;5053469;28;20481;-65
2023/06/24 10:49:43;;;;;;;8.07;5.43;;;26.30;95.40;;;;;;5054602;28;20049;-65
2023/06/24 10:52:10;;;;;;;8.23;5.88;;;26.20;96.00;;;;;;5054703;28;20109;-65
2023/06/24 10:54:40;;;;;;;9.38;5.07;;;26.10;96.40;;;;;;5071399;28;20440;-65
2023/06/24 10:57:07;;;;;;;7.35;4.70;;;26.20;95.80;;;;;;5037795;28;20482;-65
2023/06/24 10:59:39;;;;;;;8.10;4.47;;;26.30;94.60;;;;;;5072286;28;20120;-65
2023/06/24 11:02:05;;;;;;;7.57;4.85;;;26.30;93.60;;;;;;5037264;28;20040;-65
2023/06/24 11:04:31;;;;;;;5.82;4.00;;;26.30;93.70;;;;;;5072269;28;20142;-65
2023/06/24 11:07:01;;;;;;;7.00;4.55;;;26.40;92.80;;;;;;5072207;28;20033;-65
2023/06/24 11:09:27;;;;;;;7.57;4.80;;;26.50;92.10;;;;;;5053471;28;20040;-65
2023/06/24 11:11:52;;;;;;;7.68;4.35;;;26.70;92.00;;;;;;5072237;28;20036;-65
2023/06/24 11:14:20;;;;;;;6.30;3.60;;;26.70;92.00;;;;;;5054056;28;20508;-65
2023/06/24 11:16:46;;;;;;;6.60;3.90;;;26.80;90.20;;;;;;5071013;28;20047;-65
2023/06/24 11:19:11;;;;;;;7.57;3.92;;;26.70;90.50;;;;;;5054411;28;20037;-65
2023/06/24 11:21:37;;;;;;;7.05;4.40;;;26.80;90.80;;;;;;5071978;28;20032;-65
2023/06/24 11:24:03;;;;;;;8.25;5.00;;;27.00;90.80;;;;;;5071062;28;20036;-65
2023/06/24 11:26:29;;;;;;;10.77;6.45;;;27.10;90.70;;;;;;5054206;28;20072;-65
2023/06/24 11:28:55;;;;;;;7.47;5.13;;;27.30;91.20;;;;;;5053813;28;20501;-65
2023/06/24 11:31:27;;;;;;;7.30;4.55;;;27.40;91.10;;;;;;5053113;28;20053;-65
2023/06/24 11:33:52;;;;;;;8.68;6.65;;;27.40;91.30;;;;;;5053937;28;20507;-65
2023/06/24 11:36:19;;;;;;;7.97;4.45;;;27.00;91.10;;;;;;5071843;28;20115;-65
2023/06/24 11:38:48;;;;;;;6.10;3.80;;;26.80;92.10;;;;;;5053039;28;20037;-65
2023/06/24 11:41:14;;;;;;;6.88;4.03;;;26.80;92.70;;;;;;5071858;28;20389;-66
2023/06/24 11:43:44;;;;;;;6.45;3.63;;;26.80;92.20;;;;;;5053327;28;20040;-65
2023/06/24 11:46:10;;;;;;;6.07;3.45;;;27.00;92.40;;;;;;5063156;28;20116;-65
2023/06/24 11:48:42;;;;;;;7.38;3.67;;;27.10;91.80;;;;;;5053737;28;20128;-64
2023/06/24 11:51:14;;;;;;;7.70;3.85;;;27.00;90.90;;;;;;5053509;28;20044;-64
2023/06/24 11:53:44;;;;;;;6.88;3.70;;;26.80;91.60;;;;;;5045623;28;20033;-64
2023/06/24 11:56:10;;;;;;;7.68;3.45;;;26.70;92.10;;;;;;5034593;28;20436;-64
2023/06/24 11:58:35;;;;;;;6.30;3.33;;;26.60;92.50;;;;;;5033056;28;20041;-64
2023/06/24 12:01:02;;;;;;;7.20;3.65;;;26.30;92.30;;;;;;5068424;28;20041;-64
2023/06/24 12:03:29;;;;;;;6.97;3.25;;;26.10;92.30;;;;;;5033305;28;20036;-65
2023/06/24 12:05:55;;;;;;;6.60;3.17;;;26.00;92.50;;;;;;5066526;28;20047;-65
2023/06/24 12:08:22;;;;;;;8.40;3.20;;;25.90;92.60;;;;;;5052206;28;20135;-65
2023/06/24 12:10:48;;;;;;;7.95;3.20;;;26.10;92.70;;;;;;5036337;28;20181;-65
2023/06/24 12:13:14;;;;;;;6.78;2.70;;;26.10;92.00;;;;;;5037175;28;20056;-66
2023/06/24 12:15:41;;;;;;;6.40;3.28;;;26.10;92.40;;;;;;5037823;28;20572;-65
2023/06/24 12:18:07;;;;;;;8.13;3.80;;;26.20;92.60;;;;;;5050063;28;20060;-65
2023/06/24 12:20:34;;;;;;;6.15;3.65;;;26.20;92.40;;;;;;5052560;28;20148;-65
2023/06/24 12:23:00;;;;;;;6.05;3.30;;;26.20;92.50;;;;;;5052985;28;20045;-65
2023/06/24 12:25:25;;;;;;;11.30;3.85;;;26.40;93.50;;;;;;5035202;28;20060;-65
2023/06/24 12:27:51;;;;;;;7.38;3.70;;;26.60;92.60;;;;;;5034572;28;20051;-65
2023/06/24 12:30:17;;;;;;;5.03;3.08;;;26.80;92.10;;;;;;5052418;28;20528;-65
2023/06/24 12:32:43;;;;;;;5.47;3.40;;;26.80;91.20;;;;;;5034434;28;20056;-65
2023/06/24 12:35:10;;;;;;;6.15;3.38;;;26.90;91.10;;;;;;5055979;28;20044;-66
2023/06/24 12:37:36;;;;;;;6.07;3.88;;;27.00;90.80;;;;;;5051485;28;20055;-66